Time;durP1;ratioP1;P1;durP2;ratioP2;P2;SDS_P1;SDS_P2;PMS_P1;PMS_P2;Temp;Humidity;BMP_temperature;BMP_pressure;BME280_temperature;BME280_humidity;BME280_pressure;Samples;Min_cycle;Max_cycle;Signal;HPM_P1;HPM_P2
2023/06/17 00:01:26;;;;;;;19.27;15.30;;;;;;;;;;5156469;27;20264;-74
2023/06/17 00:03:55;;;;;;;20.47;15.90;;;;;;;;;;5154266;27;20452;-73
2023/06/17 00:06:22;;;;;;;20.87;15.20;;;;;;;;;;5154278;27;20488;-72
2023/06/17 00:11:54;;;;;;;26.70;15.97;;;;;;;;;;5148555;27;20419;-72
2023/06/17 00:14:24;;;;;;;19.00;17.10;;;;;;;;;;5153626;27;20481;-73
2023/06/17 00:16:59;;;;;;;21.87;17.00;;;;;;;;;;5151613;27;20908;-73
2023/06/17 00:19:31;;;;;;;23.43;17.63;;;;;;;;;;5148944;27;20464;-72
2023/06/17 00:22:00;;;;;;;24.17;17.73;;;;;;;;;;5153249;27;20460;-74
2023/06/17 00:24:34;;;;;;;22.40;17.50;;;;;;;;;;5149818;27;20461;-73
2023/06/17 00:27:02;;;;;;;25.63;20.40;;;;;;;;;;5136833;27;20692;-72
2023/06/17 00:29:33;;;;;;;24.27;18.87;;;;;;;;;;5126688;28;20542;-71
2023/06/17 00:32:02;;;;;;;21.83;18.20;;;;;;;;;;5111847;28;20501;-74
2023/06/17 00:34:30;;;;;;;23.17;18.83;;;;;;;;;;5116801;28;20478;-72
2023/06/17 00:37:00;;;;;;;24.90;19.30;;;;;;;;;;5130809;28;21142;-73
2023/06/17 00:39:34;;;;;;;25.97;19.30;;;;;;;;;;5119425;28;20507;-73
2023/06/17 00:42:02;;;;;;;27.40;19.27;;;;;;;;;;5130390;22;20487;-81
2023/06/17 00:44:29;;;;;;;30.83;19.83;;;;;;;;;;5122856;28;20761;-82
2023/06/17 00:46:58;;;;;;;22.67;18.47;;;;;;;;;;5122745;28;20449;-82
2023/06/17 00:49:31;;;;;;;32.40;20.57;;;;;;;;;;5123527;28;20428;-82
2023/06/17 00:52:04;;;;;;;28.63;20.77;;;;;;;;;;5124315;28;20467;-82
2023/06/17 00:54:33;;;;;;;30.30;20.80;;;;;;;;;;5125946;28;20459;-82
2023/06/17 00:57:02;;;;;;;26.03;20.80;;;;;;;;;;5124352;28;20479;-79
2023/06/17 00:59:31;;;;;;;26.93;19.70;;;;;;;;;;5124959;28;20538;-81
2023/06/17 01:02:00;;;;;;;27.77;19.53;;;;;;;;;;5120905;28;20887;-81
2023/06/17 01:04:28;;;;;;;29.93;22.40;;;;;;;;;;5121602;28;20991;-81
2023/06/17 01:07:01;;;;;;;28.43;22.23;;;;;;;;;;5118626;28;20473;-80
2023/06/17 01:12:35;;;;;;;33.40;21.73;;;;;;;;;;5111082;22;20548;-73
2023/06/17 01:15:03;;;;;;;28.70;22.50;;;;;;;;;;5099886;28;20483;-73
2023/06/17 01:17:52;;;;;;;33.37;21.20;;;;;;;;;;5099588;28;20558;-73
2023/06/17 01:20:20;;;;;;;35.80;23.70;;;;;;;;;;5080455;28;20453;-74
2023/06/17 01:23:00;;;;;;;29.90;20.73;;;;;;;;;;5079360;28;20790;-73
2023/06/17 01:25:31;;;;;;;25.43;21.90;;;;;;;;;;5079178;28;20453;-74
2023/06/17 01:28:07;;;;;;;28.50;21.13;;;;;;;;;;5081398;28;20463;-74
2023/06/17 01:30:35;;;;;;;31.53;22.47;;;;;;;;;;5087915;28;20498;-73
2023/06/17 01:33:03;;;;;;;27.20;22.00;;;;;;;;;;5096189;28;20464;-73
2023/06/17 01:35:37;;;;;;;34.90;24.03;;;;;;;;;;5097641;28;20518;-73
2023/06/17 01:38:09;;;;;;;30.67;23.00;;;;;;;;;;5091042;28;20567;-73
2023/06/17 01:45:50;;;;;;;27.27;21.97;;;;;;;;;;4401057;26;20487;-82
2023/06/17 01:48:21;;;;;;;30.17;22.67;;;;;;;;;;5083692;28;20519;-82
2023/06/17 01:50:48;;;;;;;46.10;25.27;;;;;;;;;;5084464;28;20456;-80
2023/06/17 01:53:16;;;;;;;31.93;23.10;;;;;;;;;;5085364;28;20449;-81
2023/06/17 01:55:43;;;;;;;31.63;22.30;;;;;;;;;;5087900;28;20449;-81
2023/06/17 01:58:11;;;;;;;35.73;24.47;;;;;;;;;;5089259;28;20481;-82
2023/06/17 02:00:38;;;;;;;30.90;22.70;;;;;;;;;;5085033;28;20467;-81
2023/06/17 02:03:07;;;;;;;32.20;23.70;;;;;;;;;;5083789;28;20771;-84
2023/06/17 02:05:34;;;;;;;28.30;23.37;;;;;;;;;;5089653;28;20460;-81
2023/06/17 02:08:04;;;;;;;40.60;24.90;;;;;;;;;;5085358;28;20457;-81
2023/06/17 02:18:52;;;;;;;36.17;25.27;;;;;;;;;;5478548;22;20504;-81
2023/06/17 02:21:20;;;;;;;32.50;24.87;;;;;;;;;;5060462;28;20525;-80
2023/06/17 02:23:50;;;;;;;41.17;26.10;;;;;;;;;;5064530;28;20454;-80
2023/06/17 02:26:32;;;;;;;34.93;24.50;;;;;;;;;;5095438;22;20484;-72
2023/06/17 02:29:05;;;;;;;36.40;27.17;;;;;;;;;;5097545;28;20455;-72
2023/06/17 02:31:36;;;;;;;40.87;28.33;;;;;;;;;;5080122;28;20448;-73
2023/06/17 02:34:06;;;;;;;44.23;28.53;;;;;;;;;;5076763;28;20840;-72
2023/06/17 02:36:38;;;;;;;37.10;26.93;;;;;;;;;;5076262;28;20485;-73
2023/06/17 02:39:08;;;;;;;37.70;27.03;;;;;;;;;;5076181;28;20990;-73
2023/06/17 02:41:36;;;;;;;41.50;28.33;;;;;;;;;;5095242;22;20496;-83
2023/06/17 02:44:03;;;;;;;37.73;27.17;;;;;;;;;;5100272;28;20443;-81
2023/06/17 02:46:31;;;;;;;39.63;26.20;;;;;;;;;;5106857;28;20461;-82
2023/06/17 02:48:58;;;;;;;36.83;26.03;;;;;;;;;;5105749;28;20436;-81
2023/06/17 02:51:27;;;;;;;36.23;25.83;;;;;;;;;;5106155;28;20463;-82
2023/06/17 02:53:55;;;;;;;43.07;29.47;;;;;;;;;;5106043;28;20866;-80
2023/06/17 02:56:23;;;;;;;39.63;27.60;;;;;;;;;;5104160;28;20939;-80
2023/06/17 02:58:50;;;;;;;40.60;26.63;;;;;;;;;;5104662;28;20545;-81
2023/06/17 03:01:18;;;;;;;37.77;26.17;;;;;;;;;;5104972;28;20470;-81
2023/06/17 03:03:45;;;;;;;35.83;24.93;;;;;;;;;;5103584;28;20880;-81
2023/06/17 03:06:13;;;;;;;35.30;26.13;;;;;;;;;;5103431;28;20448;-80
2023/06/17 03:11:46;;;;;;;32.00;25.13;;;;;;;;;;5104321;28;20407;-80
2023/06/17 03:14:19;;;;;;;38.07;27.27;;;;;;;;;;5103850;28;20470;-79
2023/06/17 03:16:48;;;;;;;45.93;27.20;;;;;;;;;;5105405;28;20475;-79
2023/06/17 03:19:19;;;;;;;40.97;25.47;;;;;;;;;;5105979;28;20926;-79
2023/06/17 03:21:47;;;;;;;34.23;25.10;;;;;;;;;;5102674;28;20543;-79
2023/06/17 03:24:14;;;;;;;34.00;24.77;;;;;;;;;;5086723;28;20771;-80
2023/06/17 03:26:42;;;;;;;37.30;27.20;;;;;;;;;;5115172;22;20897;-73
2023/06/17 03:29:12;;;;;;;40.33;27.07;;;;;;;;;;5094104;28;20978;-72
2023/06/17 03:31:40;;;;;;;40.67;25.40;;;;;;;;;;5085127;28;20549;-72
2023/06/17 03:34:08;;;;;;;35.10;25.03;;;;;;;;;;5080009;28;20449;-72
2023/06/17 03:36:39;;;;;;;43.77;26.63;;;;;;;;;;5078529;28;20456;-72
2023/06/17 03:39:10;;;;;;;46.00;24.40;;;;;;;;;;5074721;28;21051;-71
2023/06/17 03:44:15;;;;;;;36.33;23.83;;;;;;;;;;1501260;26;20549;-83
2023/06/17 03:46:42;;;;;;;35.00;24.20;;;;;;;;;;5099784;28;20527;-82
2023/06/17 03:49:09;;;;;;;36.63;23.67;;;;;;;;;;5101145;28;20444;-82
2023/06/17 03:51:37;;;;;;;39.40;24.67;;;;;;;;;;5097815;28;20463;-83
2023/06/17 03:54:04;;;;;;;31.77;23.13;;;;;;;;;;5098334;28;20470;-83
2023/06/17 03:56:32;;;;;;;34.27;23.77;;;;;;;;;;5098196;28;20457;-82
2023/06/17 03:59:00;;;;;;;38.63;24.20;;;;;;;;;;5099657;28;20831;-82
2023/06/17 04:01:30;;;;;;;36.77;22.70;;;;;;;;;;5097866;28;20456;-82
2023/06/17 04:03:57;;;;;;;38.63;22.93;;;;;;;;;;5088097;28;20453;-80
2023/06/17 04:06:25;;;;;;;35.23;23.67;;;;;;;;;;5077746;28;20735;-81
2023/06/17 04:14:42;;;;;;;29.70;20.07;;;;;;;;;;5087513;28;20475;-82
2023/06/17 04:17:11;;;;;;;31.90;23.47;;;;;;;;;;5098352;28;20456;-80
2023/06/17 04:19:38;;;;;;;31.60;23.30;;;;;;;;;;5099867;28;20484;-79
2023/06/17 04:22:06;;;;;;;36.57;24.03;;;;;;;;;;5098925;28;20443;-81
2023/06/17 04:29:45;;;;;;;36.80;22.93;;;;;;;;;;3323770;26;20520;-71
2023/06/17 04:32:34;;;;;;;42.23;24.17;;;;;;;;;;5099638;28;20924;-73
2023/06/17 04:35:04;;;;;;;35.30;23.60;;;;;;;;;;5094434;28;20487;-71
2023/06/17 04:37:35;;;;;;;45.23;23.47;;;;;;;;;;5094623;28;20768;-73
2023/06/17 04:40:11;;;;;;;43.00;24.60;;;;;;;;;;5096154;28;20480;-72
2023/06/17 05:41:29;;;;;;;32.57;19.90;;;;;;;;;;5055416;22;20655;-82
2023/06/17 05:43:56;;;;;;;36.50;22.90;;;;;;;;;;5129345;28;20474;-81
2023/06/17 05:46:24;;;;;;;32.50;22.60;;;;;;;;;;5126927;28;20443;-80
2023/06/17 05:48:51;;;;;;;35.53;24.10;;;;;;;;;;5110019;28;20526;-80
2023/06/17 05:51:19;;;;;;;33.93;22.30;;;;;;;;;;5108533;28;20459;-80
2023/06/17 05:53:46;;;;;;;30.67;19.60;;;;;;;;;;5110450;28;20448;-81
2023/06/17 05:56:13;;;;;;;35.23;20.37;;;;;;;;;;5106250;28;20460;-78
2023/06/17 05:58:42;;;;;;;27.60;20.67;;;;;;;;;;5108497;28;20471;-81
2023/06/17 06:01:10;;;;;;;26.67;19.87;;;;;;;;;;5106164;28;20836;-81
2023/06/17 06:03:37;;;;;;;31.93;21.13;;;;;;;;;;5104881;28;20528;-82
2023/06/17 06:06:05;;;;;;;30.77;20.93;;;;;;;;;;5102808;28;20459;-80
2023/06/17 06:11:37;;;;;;;25.90;19.20;;;;;;;;;;5105725;28;21333;-80
2023/06/17 06:14:18;;;;;;;28.60;20.97;;;;;;;;;;5088287;28;20680;-80
2023/06/17 06:16:51;;;;;;;28.50;20.93;;;;;;;;;;5082516;28;20452;-79
2023/06/17 06:19:18;;;;;;;31.10;20.60;;;;;;;;;;5082711;28;20501;-79
2023/06/17 06:21:46;;;;;;;28.70;22.50;;;;;;;;;;5080468;28;20468;-80
2023/06/17 06:24:14;;;;;;;28.40;20.93;;;;;;;;;;5083842;28;20448;-79
2023/06/17 06:29:20;;;;;;;26.83;20.27;;;;;;;;;;1485786;26;20491;-73
2023/06/17 06:32:04;;;;;;;23.90;18.57;;;;;;;;;;5074996;28;20528;-72
2023/06/17 06:34:35;;;;;;;26.90;20.43;;;;;;;;;;5059304;28;20460;-73
2023/06/17 06:37:09;;;;;;;25.53;18.97;;;;;;;;;;5074833;28;20441;-72
2023/06/17 06:39:38;;;;;;;32.53;20.43;;;;;;;;;;5067035;28;20494;-73
2023/06/17 06:42:06;;;;;;;24.37;18.47;;;;;;;;;;5090911;22;20541;-79
2023/06/17 06:44:35;;;;;;;28.77;19.50;;;;;;;;;;5086374;28;20453;-81
2023/06/17 06:47:02;;;;;;;29.17;18.80;;;;;;;;;;5088354;28;20457;-78
2023/06/17 06:49:29;;;;;;;25.37;19.80;;;;;;;;;;5087182;28;20484;-79
2023/06/17 06:51:57;;;;;;;26.60;19.33;;;;;;;;;;5085156;28;20436;-79
2023/06/17 06:54:34;;;;;;;26.37;19.77;;;;;;;;;;5064328;28;20489;-79
2023/06/17 06:57:03;;;;;;;22.47;18.63;;;;;;;;;;5059291;28;20461;-80
2023/06/17 06:59:31;;;;;;;27.03;18.43;;;;;;;;;;5060010;28;20486;-79
2023/06/17 07:02:03;;;;;;;23.67;20.30;;;;;;;;;;5056869;28;20454;-80
2023/06/17 07:04:31;;;;;;;20.83;16.30;;;;;;;;;;5060358;28;20465;-79
2023/06/17 07:06:58;;;;;;;35.47;19.90;;;;;;;;;;5060298;28;20485;-80
2023/06/17 07:14:58;;;;;;;25.07;19.50;;;;;;;;;;5054038;28;20465;-72
2023/06/17 07:17:33;;;;;;;24.53;17.90;;;;;;;;;;5053949;28;20465;-72
2023/06/17 07:22:43;;;;;;;27.37;18.17;;;;;;;;;;5030844;28;20517;-74
2023/06/17 07:31:01;;;;;;;22.57;17.23;;;;;;;;;;5029984;28;20455;-73
2023/06/17 07:34:04;;;;;;;22.77;17.80;;;;;;;;;;5053776;28;20497;-72
2023/06/17 07:36:40;;;;;;;25.83;18.07;;;;;;;;;;5052846;28;20458;-71
2023/06/17 07:39:25;;;;;;;20.40;18.07;;;;;;;;;;5052688;28;20492;-72
2023/06/17 07:41:52;;;;;;;22.60;16.33;;;;;;;;;;5045007;22;20491;-80
2023/06/17 07:44:19;;;;;;;24.03;18.73;;;;;;;;;;5025031;28;20459;-79
2023/06/17 07:46:47;;;;;;;20.93;16.53;;;;;;;;;;5026915;28;20523;-81
2023/06/17 07:49:15;;;;;;;26.10;18.23;;;;;;;;;;5026200;28;20506;-81
2023/06/17 07:51:43;;;;;;;24.20;17.77;;;;;;;;;;5037248;28;20442;-79
2023/06/17 07:54:12;;;;;;;20.27;15.40;;;;;;;;;;5041860;28;20445;-82
2023/06/17 07:56:46;;;;;;;22.50;18.67;;;;;;;;;;5022240;28;20452;-82
2023/06/17 07:59:17;;;;;;;24.60;16.23;;;;;;;;;;5022192;28;20495;-80
2023/06/17 08:01:45;;;;;;;25.67;17.00;;;;;;;;;;5027385;28;20495;-80
2023/06/17 08:04:12;;;;;;;21.73;17.10;;;;;;;;;;5021054;28;20470;-80
2023/06/17 08:06:42;;;;;;;21.37;16.30;;;;;;;;;;5021063;28;20472;-78
2023/06/17 08:14:40;;;;;;;23.20;16.80;;;;;;;;;;5021545;28;20463;-79
2023/06/17 08:17:08;;;;;;;21.10;16.93;;;;;;;;;;5023477;28;20203;-83
2023/06/17 08:19:36;;;;;;;25.20;18.87;;;;;;;;;;5031114;28;20520;-81
2023/06/17 08:22:05;;;;;;;24.70;18.93;;;;;;;;;;5024160;28;20466;-79
2023/06/17 08:30:10;;;;;;;23.57;17.13;;;;;;;;;;4222367;26;20491;-73
2023/06/17 08:35:28;;;;;;;22.80;16.20;;;;;;;;;;4991858;28;20775;-73
2023/06/17 08:38:04;;;;;;;21.27;16.30;;;;;;;;;;4995341;28;20503;-73
2023/06/17 09:26:34;;;;;;;15.60;12.67;;;;;;;;;;5037389;28;20481;-74
2023/06/17 09:29:21;;;;;;;15.30;12.00;;;;;;;;;;5036528;28;20743;-75
2023/06/17 09:31:55;;;;;;;16.40;12.63;;;;;;;;;;5041984;28;20465;-73
2023/06/17 09:34:37;;;;;;;48.50;27.00;;;;;;;;;;5041659;28;20999;-75
2023/06/17 09:37:16;;;;;;;16.43;14.70;;;;;;;;;;5017506;28;20451;-75
2023/06/17 09:39:46;;;;;;;14.77;12.37;;;;;;;;;;5017940;28;20579;-75
2023/06/17 09:42:20;;;;;;;13.60;12.20;;;;;;;;;;5034263;22;20575;-79
2023/06/17 09:45:11;;;;;;;18.60;12.07;;;;;;;;;;5028500;28;20439;-81
2023/06/17 09:50:46;;;;;;;;;;;;;;;;;;;;;
2023/06/17 09:53:16;;;;;;;13.53;11.40;;;;;;;;;;5028350;28;20479;-79
2023/06/17 09:55:45;;;;;;;12.33;10.93;;;;;;;;;;5026364;28;20503;-80
2023/06/17 09:58:15;;;;;;;14.90;11.77;;;;;;;;;;5030326;28;20452;-79
2023/06/17 10:00:45;;;;;;;16.80;11.30;;;;;;;;;;5029292;28;20471;-79
2023/06/17 10:03:14;;;;;;;14.47;12.33;;;;;;;;;;5026746;28;20471;-78
2023/06/17 10:05:45;;;;;;;13.73;11.47;;;;;;;;;;5026950;28;20452;-81
2023/06/17 10:08:16;;;;;;;17.80;11.27;;;;;;;;;;5023603;28;20459;-81
2023/06/17 10:41:57;;;;;;;19.43;11.70;;;;;;;;;;5043035;23;21059;-80
2023/06/17 10:44:43;;;;;;;13.30;11.20;;;;;;;;;;5010590;28;20528;-81
2023/06/17 10:47:20;;;;;;;15.20;13.50;;;;;;;;;;5009593;28;20449;-80
2023/06/17 10:49:48;;;;;;;16.50;11.87;;;;;;;;;;5019357;28;20471;-80
2023/06/17 10:52:16;;;;;;;15.67;12.13;;;;;;;;;;5012013;28;20529;-81
2023/06/17 10:54:51;;;;;;;17.90;13.20;;;;;;;;;;5024874;28;20494;-81
2023/06/17 10:57:30;;;;;;;17.73;11.60;;;;;;;;;;5007966;28;20478;-81
2023/06/17 11:00:09;;;;;;;15.90;12.23;;;;;;;;;;5012393;28;20480;-80
2023/06/17 11:02:46;;;;;;;12.80;10.87;;;;;;;;;;5020650;28;20463;-80
2023/06/17 11:05:39;;;;;;;17.93;14.67;;;;;;;;;;5021495;28;20499;-81
2023/06/17 11:22:39;;;;;;;11.97;10.67;;;;;;;;;;5049371;28;20474;-79
2023/06/17 11:33:01;;;;;;;16.53;10.60;;;;;;;;;;5454882;22;20554;-80
2023/06/17 11:35:30;;;;;;;12.00;10.80;;;;;;;;;;5043182;28;20423;-81
2023/06/17 11:38:01;;;;;;;12.83;11.53;;;;;;;;;;5043730;28;20458;-79
2023/06/17 11:40:30;;;;;;;16.83;12.33;;;;;;;;;;5022269;28;20495;-81
2023/06/17 11:42:58;;;;;;;12.27;10.37;;;;;;;;;;5023972;28;20459;-79
2023/06/17 11:45:27;;;;;;;18.13;13.67;;;;;;;;;;5025441;28;20755;-80
2023/06/17 11:47:55;;;;;;;11.70;10.30;;;;;;;;;;5024352;28;20464;-81
2023/06/17 11:50:31;;;;;;;11.60;8.37;;;;;;;;;;5025490;28;20436;-79
2023/06/17 11:53:03;;;;;;;10.30;9.20;;;;;;;;;;5051354;28;20451;-78
2023/06/17 11:55:42;;;;;;;13.10;9.33;;;;;;;;;;5024531;28;20474;-81
2023/06/17 12:01:26;;;;;;;11.60;9.27;;;;;;;;;;5046409;28;20497;-80
2023/06/17 12:04:07;;;;;;;10.37;9.30;;;;;;;;;;5045347;28;20450;-79
2023/06/17 12:06:36;;;;;;;11.03;8.33;;;;;;;;;;5039812;28;20458;-79
2023/06/17 12:15:36;;;;;;;10.70;8.43;;;;;;;;;;5049713;28;20469;-77
2023/06/17 13:51:22;;;;;;;12.30;7.40;;;;;;;;;;5054879;22;20808;-78
2023/06/17 13:53:52;;;;;;;11.17;7.90;;;;;;;;;;5047767;28;20738;-79
2023/06/17 13:56:22;;;;;;;8.57;7.40;;;;;;;;;;5041333;28;20451;-79
2023/06/17 13:58:55;;;;;;;9.87;8.00;;;;;;;;;;5043271;28;20454;-80
2023/06/17 14:01:24;;;;;;;7.93;6.73;;;;;;;;;;5042611;28;20582;-79
2023/06/17 14:03:58;;;;;;;8.60;7.70;;;;;;;;;;5045664;28;20455;-80
2023/06/17 14:06:35;;;;;;;8.57;7.60;;;;;;;;;;5045790;28;20447;-80
2023/06/17 14:12:07;;;;;;;8.33;7.50;;;;;;;;;;5044224;28;20472;-80
2023/06/17 14:14:34;;;;;;;8.80;7.23;;;;;;;;;;5050074;28;20470;-80
2023/06/17 14:17:10;;;;;;;9.90;8.90;;;;;;;;;;5041068;28;20462;-80
2023/06/17 14:19:39;;;;;;;10.30;7.80;;;;;;;;;;5051443;28;20449;-80
2023/06/17 14:22:08;;;;;;;8.47;6.93;;;;;;;;;;5063151;28;20989;-79
2023/06/17 16:32:20;;;;;;;5.87;5.00;;;;;;;;;;5161079;22;20548;-74
2023/06/17 16:35:09;;;;;;;5.20;4.67;;;;;;;;;;5022097;28;20631;-74
2023/06/17 16:37:41;;;;;;;5.20;4.50;;;;;;;;;;5031252;28;20455;-76
2023/06/17 16:40:12;;;;;;;6.47;5.60;;;;;;;;;;5032438;28;20550;-72
2023/06/17 16:42:42;;;;;;;7.87;6.77;;;;;;;;;;5033800;28;20474;-73
2023/06/17 16:45:23;;;;;;;15.07;13.57;;;;;;;;;;5035729;28;20450;-76
2023/06/17 16:48:05;;;;;;;8.03;5.83;;;;;;;;;;5028834;28;20464;-75
2023/06/17 16:53:36;;;;;;;6.43;5.40;;;;;;;;;;5051637;22;20549;-80
2023/06/17 16:56:04;;;;;;;14.93;13.53;;;;;;;;;;5043327;28;20514;-84
2023/06/17 16:58:34;;;;;;;8.10;6.93;;;;;;;;;;5044375;28;20427;-78
2023/06/17 17:01:02;;;;;;;7.47;6.43;;;;;;;;;;5041355;28;20482;-83
2023/06/17 17:03:33;;;;;;;9.43;7.80;;;;;;;;;;5045280;28;20455;-79
2023/06/17 17:06:00;;;;;;;6.77;6.00;;;;;;;;;;5046387;28;20514;-83
2023/06/17 17:13:48;;;;;;;7.20;5.90;;;;;;;;;;4240387;26;20914;-73
2023/06/17 17:19:37;;;;;;;9.20;7.33;;;;;;;;;;5011571;28;20788;-75
2023/06/17 17:22:16;;;;;;;9.23;6.73;;;;;;;;;;5010782;28;20476;-75
2023/06/17 17:24:59;;;;;;;13.03;8.67;;;;;;;;;;4992967;28;20460;-75
2023/06/17 17:38:33;;;;;;;8.50;7.47;;;;;;;;;;4971246;22;21128;-81
2023/06/17 19:16:08;;;;;;;10.10;8.40;;;;;;;;;;4975868;26;20521;-71
2023/06/17 19:22:21;;;;;;;6.97;6.20;;;;;;;;;;5029354;28;20570;-73
2023/06/17 19:30:11;;;;;;;9.70;8.27;;;;;;;;;;2575439;22;20487;-83
2023/06/17 19:32:40;;;;;;;10.40;7.90;;;;;;;;;;5023071;28;20464;-82
2023/06/17 19:35:09;;;;;;;11.27;9.10;;;;;;;;;;5018559;28;20575;-82
2023/06/17 19:37:39;;;;;;;10.67;9.47;;;;;;;;;;5035551;28;20510;-80
2023/06/17 19:40:08;;;;;;;13.53;9.00;;;;;;;;;;5038100;28;20462;-83
2023/06/17 19:42:35;;;;;;;9.73;7.53;;;;;;;;;;5037838;28;20451;-82
2023/06/17 19:45:03;;;;;;;9.13;7.10;;;;;;;;;;5026796;28;20463;-80
2023/06/17 19:47:30;;;;;;;8.57;7.03;;;;;;;;;;5037847;28;20557;-80
2023/06/17 19:50:00;;;;;;;7.87;6.57;;;;;;;;;;5046617;28;20505;-81
2023/06/17 19:52:27;;;;;;;13.33;8.00;;;;;;;;;;5044767;28;20481;-81
2023/06/17 19:54:55;;;;;;;8.60;6.57;;;;;;;;;;5046105;28;20481;-78
2023/06/17 19:57:23;;;;;;;8.77;6.97;;;;;;;;;;5047286;28;20469;-81
2023/06/17 19:59:51;;;;;;;9.67;8.57;;;;;;;;;;5046088;28;20465;-80
2023/06/17 20:02:19;;;;;;;11.07;8.13;;;;;;;;;;5042389;28;20486;-81
2023/06/17 20:04:46;;;;;;;10.00;7.80;;;;;;;;;;5042950;28;20462;-80
2023/06/17 20:07:15;;;;;;;7.93;6.97;;;;;;;;;;5041596;28;20910;-80
2023/06/17 20:12:57;;;;;;;6.90;6.13;;;;;;;;;;5093876;22;21261;-73
2023/06/17 20:15:53;;;;;;;10.77;9.67;;;;;;;;;;5003462;28;20880;-72
2023/06/17 20:18:25;;;;;;;10.37;8.30;;;;;;;;;;5013090;28;20486;-74
2023/06/17 20:21:04;;;;;;;8.10;7.20;;;;;;;;;;5002720;28;20578;-72
2023/06/17 20:23:47;;;;;;;8.20;7.07;;;;;;;;;;5040773;28;20825;-72
2023/06/17 21:29:45;;;;;;;20.20;15.73;;;;;;;;;;5139809;22;20476;-81
2023/06/17 21:32:13;;;;;;;17.53;11.97;;;;;;;;;;5062344;28;20470;-81
2023/06/17 21:34:44;;;;;;;11.60;10.40;;;;;;;;;;5066213;28;20841;-82
2023/06/17 21:37:12;;;;;;;12.97;10.70;;;;;;;;;;5056091;28;20528;-79
2023/06/17 21:39:39;;;;;;;13.60;10.43;;;;;;;;;;5045398;28;20475;-82
2023/06/17 21:42:09;;;;;;;19.13;10.73;;;;;;;;;;5041446;28;20775;-81
2023/06/17 21:44:40;;;;;;;18.47;10.40;;;;;;;;;;5044316;28;20757;-80
2023/06/17 21:47:09;;;;;;;10.60;9.50;;;;;;;;;;5038967;28;20442;-81
2023/06/17 21:49:39;;;;;;;10.40;8.80;;;;;;;;;;5063441;28;20450;-80
2023/06/17 21:52:07;;;;;;;12.80;11.00;;;;;;;;;;5064954;28;20457;-79
2023/06/17 21:54:35;;;;;;;11.37;9.83;;;;;;;;;;5063547;28;20469;-80
2023/06/17 21:57:03;;;;;;;15.57;9.43;;;;;;;;;;5061983;28;20549;-80
2023/06/17 21:59:32;;;;;;;13.30;9.53;;;;;;;;;;5063283;28;20497;-81
2023/06/17 22:02:00;;;;;;;12.40;9.10;;;;;;;;;;5063848;28;20481;-84
2023/06/17 22:04:30;;;;;;;10.73;9.63;;;;;;;;;;5061664;28;20858;-80
2023/06/17 22:06:59;;;;;;;9.33;8.33;;;;;;;;;;5057949;28;20564;-81
2023/06/17 22:14:56;;;;;;;14.43;11.57;;;;;;;;;;5045779;28;20470;-81
2023/06/17 22:17:26;;;;;;;12.50;9.30;;;;;;;;;;5058638;28;20269;-81
2023/06/17 22:20:10;;;;;;;11.57;10.07;;;;;;;;;;5063172;28;20445;-81
2023/06/17 22:22:39;;;;;;;10.40;8.90;;;;;;;;;;5056242;28;20587;-81
2023/06/17 23:31:21;;;;;;;14.93;9.90;;;;;;;;;;3968314;22;22579;-73
2023/06/17 23:33:52;;;;;;;14.50;11.93;;;;;;;;;;5030389;28;20975;-74
2023/06/17 23:36:21;;;;;;;12.73;10.40;;;;;;;;;;5020206;28;20436;-73
2023/06/17 23:38:51;;;;;;;14.17;10.50;;;;;;;;;;5011323;28;20739;-74
2023/06/17 23:41:20;;;;;;;14.40;11.80;;;;;;;;;;5010874;28;20487;-73
2023/06/17 23:43:48;;;;;;;11.63;10.37;;;;;;;;;;5011574;28;20452;-71
2023/06/17 23:46:15;;;;;;;15.40;11.57;;;;;;;;;;5011869;28;20529;-71
2023/06/17 23:48:44;;;;;;;11.70;10.50;;;;;;;;;;5011353;28;20490;-72
2023/06/17 23:51:12;;;;;;;13.97;11.90;;;;;;;;;;5013601;28;20471;-72
2023/06/17 23:53:39;;;;;;;14.43;11.37;;;;;;;;;;5011946;28;20557;-71
2023/06/17 23:56:07;;;;;;;15.47;12.40;;;;;;;;;;5033956;28;20615;-72
2023/06/17 23:58:46;;;;;;;13.10;11.60;;;;;;;;;;5025948;28;20481;-74
